Observations for MIDDLE WALLOP, United Kingdom (EGVP)

EGVP 221150Z 10009KT 9999 SCT015 SCT035 21/17 Q1018 WHT BECMG SCT025 BLU
EGVP 221050Z 10007KT 9999 SCT010 OVC035 20/17 Q1019 GRN BECMG SCT018 WHT
EGVP 220939Z 13008KT 9999 OVC007 ///// Q//// GRN BECMG SCT015 WHT   
EGVP 220939Z 13008KT 9999 OVC007 ///// Q//// GRN BECMG SCT015 WHT
EGVP 220905Z 11006KT 9999 FEW002 BKN004 OVC006 18/17 Q1020 YLO2 BECMG BKN008 GRN
EGVP 220835Z 12007KT 4500 BR BKN001 OVC002 17/17 Q1020 RED BECMG 7000 BR BKN005 YLO1
EGVP 220835Z 12007KT 4500 BR BKN001 OVC002 17/17 Q1020 RED BECMG 7000 BR BKN005YLO1
EGVP 220812Z 12006KT 2000 -DZ OVC001 17/17 Q1020 RED BECMG 7000 BR BKN005 YLO1
EGVP 220750Z 13004KT 5000 BR BKN001 OVC003 17/17 Q1020 RED BECMG 9999 NSW BKN007 GRN
EGVP 220734Z 13007KT 2000 BR OVC001 17/17 Q1020 RED BECMG 9999 NSW BKN007 GRN
EGVP 220722Z 13007KT 0400 FG OVC001 17/16 Q1020 RED BECMG 9999 BKN007 GRN
EGVP 220650Z 15006KT 5000 -DZ SCT001 OVC003 17/16 Q1020 RED BECMG 9999 BKN007 GRN   
EGVP 220613Z 12006KT 5000 BR SCT001 OVC002 16/16 Q1020 RED
EGVP 220550Z 14005KT 4000 BR SCT001 OVC002 16/16 Q1020 RED  
EGVP 220450Z 16005KT 0400 FG VV/// 16/16 Q1020 RED  
EGVP 220350Z AUTO 16006KT 0150 // VV/// 16/16 Q1020 
EGVP 220250Z AUTO 15005KT 0100 // VV/// 16/16 Q1020 
EGVP 220150Z AUTO 16005KT 0150 // VV/// 16/16 Q1020 
EGVP 220050Z AUTO 15006KT 0150 // VV/// 17/17 Q1020 
EGVP 212350Z AUTO 16005KT 0200 // SCT002/// OVC027/// 17/16 Q1020   
EGVP 212250Z AUTO 14002KT 9999 // BKN027/// OVC050/// 18/16 Q1021   
EGVP 212150Z 15004KT CAVOK 18/17 Q1021 BLU BECMG 3000 BR BKN003 YLO2
EGVP 212050Z 16007KT 9999 FEW025 BKN055 19/17 Q1021 BLU BECMG 4500 BR GRN   
EGVP 211950Z 14004KT 9999 SCT026 20/18 Q1020 BLU NOSIG  
EGVP 211850Z 15003KT 9999 FEW021 BKN042 21/18 Q1020 BLU NOSIG   
EGVP 211750Z 20002KT 9999 VCSH FEW018 BKN032 BKN043 21/18 Q1020 BLU NOSIG   
EGVP 211650Z 14002KT 9999 BKN026 BKN034 22/16 Q1020 BLU NOSIG   
EGVP 211550Z 36003KT 9999 SCT028 BKN038 23/16 Q1020 BLU NOSIG   
EGVP 211450Z 30004KT 9999 FEW022 BKN038 22/16 Q1020 BLU NOSIG   
EGVP 211350Z 29004KT 9999 FEW013 BKN033 21/18 Q1021 BLU TEMPO SCT016 WHT
EGVP 211250Z 29005KT 9999 FEW009 SCT018 BKN023 20/18 Q1021 WHT TEMPO SCT009 GRN 
EGVP 211228Z 30005KT 9999 5000NE -DZ SCT005 BKN015 BKN023 19/18 Q1021 YLO1 BECMG 9999 NSW SCT008 GRN
EGVP 211241Z 31004KT 9999 FEW006 SCT017 BKN023 19/18 Q1021 WHT TEMPO SCT008 GRN
EGVP 211150Z 30002KT 8000 3000S -DZ FEW002 BKN005 BKN017 19/18 Q1021 YLO1 BECMG 9999 NSW BKN008 GRN